sensor_id;sensor_type;location;lat;lon;timestamp;pressure;altitude;pressure_sealevel;temperature;humidity
72612;BME280;60655;52.182;4.474;2023-04-27T00:00:45;102083.19;;;4.58;79.55
72612;BME280;60655;52.182;4.474;2023-04-27T00:02:46;102083.59;;;4.54;79.35
72612;BME280;60655;52.182;4.474;2023-04-27T00:04:47;102079.56;;;4.59;79.22
72612;BME280;60655;52.182;4.474;2023-04-27T00:06:48;102085.94;;;4.57;79.22
72612;BME280;60655;52.182;4.474;2023-04-27T00:08:49;102085.16;;;4.47;78.75
72612;BME280;60655;52.182;4.474;2023-04-27T00:10:50;102077.00;;;4.67;78.61
72612;BME280;60655;52.182;4.474;2023-04-27T00:12:51;102080.72;;;4.74;79.08
72612;BME280;60655;52.182;4.474;2023-04-27T00:14:52;102078.28;;;4.63;78.70
72612;BME280;60655;52.182;4.474;2023-04-27T00:16:54;102072.56;;;4.68;78.08
72612;BME280;60655;52.182;4.474;2023-04-27T00:18:55;102071.75;;;4.67;78.75
72612;BME280;60655;52.182;4.474;2023-04-27T00:20:56;102072.72;;;4.39;77.96
72612;BME280;60655;52.182;4.474;2023-04-27T00:22:57;102080.72;;;4.47;78.92
72612;BME280;60655;52.182;4.474;2023-04-27T00:24:58;102087.09;;;4.45;79.35
72612;BME280;60655;52.182;4.474;2023-04-27T00:26:59;102077.97;;;4.39;79.57
72612;BME280;60655;52.182;4.474;2023-04-27T00:29:01;102066.34;;;4.41;80.12
72612;BME280;60655;52.182;4.474;2023-04-27T00:31:02;102077.06;;;4.30;80.31
72612;BME280;60655;52.182;4.474;2023-04-27T00:33:04;102070.91;;;4.39;80.03
72612;BME280;60655;52.182;4.474;2023-04-27T00:35:06;102072.78;;;4.29;79.52
72612;BME280;60655;52.182;4.474;2023-04-27T00:37:07;102073.47;;;4.31;80.32
72612;BME280;60655;52.182;4.474;2023-04-27T00:39:08;102074.81;;;4.35;80.42
72612;BME280;60655;52.182;4.474;2023-04-27T00:41:09;102071.13;;;4.28;79.81
72612;BME280;60655;52.182;4.474;2023-04-27T00:43:10;102070.94;;;4.02;80.53
72612;BME280;60655;52.182;4.474;2023-04-27T00:45:11;102066.75;;;4.10;81.43
72612;BME280;60655;52.182;4.474;2023-04-27T00:47:13;102067.91;;;3.97;81.31
72612;BME280;60655;52.182;4.474;2023-04-27T00:49:15;102067.84;;;4.07;81.35
72612;BME280;60655;52.182;4.474;2023-04-27T00:51:16;102058.75;;;4.01;80.58
72612;BME280;60655;52.182;4.474;2023-04-27T00:53:17;102061.19;;;4.13;80.77
72612;BME280;60655;52.182;4.474;2023-04-27T00:55:18;102062.50;;;3.99;81.20
72612;BME280;60655;52.182;4.474;2023-04-27T00:57:19;102057.94;;;3.91;81.30
72612;BME280;60655;52.182;4.474;2023-04-27T00:59:20;102061.00;;;3.87;81.67
72612;BME280;60655;52.182;4.474;2023-04-27T01:01:22;102074.91;;;4.06;81.22
72612;BME280;60655;52.182;4.474;2023-04-27T01:03:23;102069.56;;;3.98;82.06
72612;BME280;60655;52.182;4.474;2023-04-27T01:05:25;102073.72;;;4.01;82.05
72612;BME280;60655;52.182;4.474;2023-04-27T01:07:26;102066.81;;;3.81;81.35
72612;BME280;60655;52.182;4.474;2023-04-27T01:09:27;102075.25;;;3.84;81.76
72612;BME280;60655;52.182;4.474;2023-04-27T01:11:28;102068.19;;;3.94;82.02
72612;BME280;60655;52.182;4.474;2023-04-27T01:13:29;102072.13;;;4.08;80.89
72612;BME280;60655;52.182;4.474;2023-04-27T01:15:30;102066.53;;;3.93;81.70
72612;BME280;60655;52.182;4.474;2023-04-27T01:17:31;102061.69;;;3.79;82.24
72612;BME280;60655;52.182;4.474;2023-04-27T01:19:32;102062.28;;;3.63;82.21
72612;BME280;60655;52.182;4.474;2023-04-27T01:21:33;102055.66;;;3.69;82.49
72612;BME280;60655;52.182;4.474;2023-04-27T01:23:34;102053.69;;;3.81;82.50
72612;BME280;60655;52.182;4.474;2023-04-27T01:25:35;102052.00;;;3.80;82.30
72612;BME280;60655;52.182;4.474;2023-04-27T01:27:36;102050.91;;;3.82;82.50
72612;BME280;60655;52.182;4.474;2023-04-27T01:29:37;102049.78;;;3.85;82.04
72612;BME280;60655;52.182;4.474;2023-04-27T01:31:38;102041.22;;;3.83;82.94
72612;BME280;60655;52.182;4.474;2023-04-27T01:33:39;102041.13;;;3.75;82.64
72612;BME280;60655;52.182;4.474;2023-04-27T01:35:40;102031.72;;;3.72;82.92
72612;BME280;60655;52.182;4.474;2023-04-27T01:37:41;102030.63;;;3.65;83.02
72612;BME280;60655;52.182;4.474;2023-04-27T01:39:43;102030.91;;;3.71;82.59
72612;BME280;60655;52.182;4.474;2023-04-27T01:41:43;102031.13;;;3.78;82.05
72612;BME280;60655;52.182;4.474;2023-04-27T01:43:44;102033.25;;;3.65;82.62
72612;BME280;60655;52.182;4.474;2023-04-27T01:45:45;102032.97;;;3.58;82.61
72612;BME280;60655;52.182;4.474;2023-04-27T01:47:52;102032.47;;;3.45;82.32
72612;BME280;60655;52.182;4.474;2023-04-27T01:49:53;102030.50;;;3.66;82.29
72612;BME280;60655;52.182;4.474;2023-04-27T01:51:54;102028.53;;;3.68;82.64
72612;BME280;60655;52.182;4.474;2023-04-27T01:53:55;102039.84;;;3.79;82.62
72612;BME280;60655;52.182;4.474;2023-04-27T01:55:56;102038.78;;;3.71;82.23
72612;BME280;60655;52.182;4.474;2023-04-27T01:57:59;102036.56;;;3.57;83.00
72612;BME280;60655;52.182;4.474;2023-04-27T02:00:00;102036.84;;;3.54;83.36
72612;BME280;60655;52.182;4.474;2023-04-27T02:02:01;102031.47;;;3.56;83.12
72612;BME280;60655;52.182;4.474;2023-04-27T02:04:01;102028.28;;;3.71;82.51
72612;BME280;60655;52.182;4.474;2023-04-27T02:06:03;102031.03;;;3.70;82.55
72612;BME280;60655;52.182;4.474;2023-04-27T02:08:04;102024.97;;;3.50;81.96
72612;BME280;60655;52.182;4.474;2023-04-27T02:10:06;102032.28;;;3.66;83.10
72612;BME280;60655;52.182;4.474;2023-04-27T02:12:07;102028.69;;;3.57;83.13
72612;BME280;60655;52.182;4.474;2023-04-27T02:14:08;102025.50;;;3.63;82.79
72612;BME280;60655;52.182;4.474;2023-04-27T02:16:09;102023.09;;;3.80;82.74
72612;BME280;60655;52.182;4.474;2023-04-27T02:18:10;102020.06;;;3.84;82.66
72612;BME280;60655;52.182;4.474;2023-04-27T02:20:11;102020.44;;;3.99;82.34
72612;BME280;60655;52.182;4.474;2023-04-27T02:22:12;102014.22;;;3.90;82.44
72612;BME280;60655;52.182;4.474;2023-04-27T02:24:13;102018.34;;;4.02;83.01
72612;BME280;60655;52.182;4.474;2023-04-27T02:26:17;102021.06;;;4.11;83.11
72612;BME280;60655;52.182;4.474;2023-04-27T02:28:19;102018.72;;;4.07;83.04
72612;BME280;60655;52.182;4.474;2023-04-27T02:30:20;102018.56;;;4.19;82.94
72612;BME280;60655;52.182;4.474;2023-04-27T02:32:21;102009.44;;;4.13;83.06
72612;BME280;60655;52.182;4.474;2023-04-27T02:34:22;102018.25;;;4.22;83.60
72612;BME280;60655;52.182;4.474;2023-04-27T02:36:23;102003.56;;;4.29;82.85
72612;BME280;60655;52.182;4.474;2023-04-27T02:38:24;102009.25;;;4.24;83.37
72612;BME280;60655;52.182;4.474;2023-04-27T02:40:25;102014.38;;;4.26;83.22
72612;BME280;60655;52.182;4.474;2023-04-27T02:42:26;102017.06;;;4.34;83.32
72612;BME280;60655;52.182;4.474;2023-04-27T02:44:27;102011.44;;;4.29;83.27
72612;BME280;60655;52.182;4.474;2023-04-27T02:46:28;102013.03;;;4.39;82.75
72612;BME280;60655;52.182;4.474;2023-04-27T02:48:29;102010.63;;;4.28;82.81
72612;BME280;60655;52.182;4.474;2023-04-27T02:50:30;102014.41;;;4.44;82.68
72612;BME280;60655;52.182;4.474;2023-04-27T02:52:31;102016.75;;;4.47;82.50
72612;BME280;60655;52.182;4.474;2023-04-27T02:54:32;102013.31;;;4.36;82.84
72612;BME280;60655;52.182;4.474;2023-04-27T02:56:33;102020.78;;;4.41;82.92
72612;BME280;60655;52.182;4.474;2023-04-27T02:58:35;102027.16;;;4.38;82.44
72612;BME280;60655;52.182;4.474;2023-04-27T03:00:35;102022.59;;;4.40;82.28
72612;BME280;60655;52.182;4.474;2023-04-27T03:02:36;102028.97;;;4.38;82.49
72612;BME280;60655;52.182;4.474;2023-04-27T03:04:37;102008.59;;;4.13;81.60
72612;BME280;60655;52.182;4.474;2023-04-27T03:06:39;102029.88;;;4.29;82.09
72612;BME280;60655;52.182;4.474;2023-04-27T03:08:41;102028.09;;;4.20;82.54
72612;BME280;60655;52.182;4.474;2023-04-27T03:10:42;102025.72;;;4.26;82.14
72612;BME280;60655;52.182;4.474;2023-04-27T03:12:43;102027.31;;;4.37;81.98
72612;BME280;60655;52.182;4.474;2023-04-27T03:14:43;102031.59;;;4.38;81.93
72612;BME280;60655;52.182;4.474;2023-04-27T03:16:44;102029.38;;;4.43;81.56
72612;BME280;60655;52.182;4.474;2023-04-27T03:18:45;102024.09;;;4.43;81.96
72612;BME280;60655;52.182;4.474;2023-04-27T03:20:46;102029.75;;;4.48;81.92
72612;BME280;60655;52.182;4.474;2023-04-27T03:22:47;102027.16;;;4.38;81.74
72612;BME280;60655;52.182;4.474;2023-04-27T03:24:48;102029.31;;;4.25;81.78
72612;BME280;60655;52.182;4.474;2023-04-27T03:26:50;102035.94;;;4.29;81.49
72612;BME280;60655;52.182;4.474;2023-04-27T03:28:52;102026.25;;;4.30;81.25
72612;BME280;60655;52.182;4.474;2023-04-27T03:30:53;102033.19;;;4.31;80.89
72612;BME280;60655;52.182;4.474;2023-04-27T03:32:53;102025.97;;;4.33;81.42
72612;BME280;60655;52.182;4.474;2023-04-27T03:34:56;102024.31;;;4.32;81.28
72612;BME280;60655;52.182;4.474;2023-04-27T03:36:57;102023.66;;;4.20;81.28
72612;BME280;60655;52.182;4.474;2023-04-27T03:38:58;102030.72;;;4.20;81.44
72612;BME280;60655;52.182;4.474;2023-04-27T03:40:59;102013.84;;;4.22;81.33
72612;BME280;60655;52.182;4.474;2023-04-27T03:43:00;102024.91;;;4.16;81.43
72612;BME280;60655;52.182;4.474;2023-04-27T03:45:01;102036.97;;;4.19;82.03
72612;BME280;60655;52.182;4.474;2023-04-27T03:47:02;102038.66;;;4.10;81.71
72612;BME280;60655;52.182;4.474;2023-04-27T03:49:08;102032.97;;;4.05;81.95
72612;BME280;60655;52.182;4.474;2023-04-27T03:51:09;102042.09;;;4.11;81.59
72612;BME280;60655;52.182;4.474;2023-04-27T03:53:10;102046.66;;;4.08;81.45
72612;BME280;60655;52.182;4.474;2023-04-27T03:55:11;102037.13;;;4.07;81.57
72612;BME280;60655;52.182;4.474;2023-04-27T03:57:13;102046.25;;;4.13;81.43
72612;BME280;60655;52.182;4.474;2023-04-27T03:59:14;102046.66;;;4.08;81.64
72612;BME280;60655;52.182;4.474;2023-04-27T04:01:15;102036.44;;;4.05;82.16
72612;BME280;60655;52.182;4.474;2023-04-27T04:03:16;102042.59;;;3.96;82.42
72612;BME280;60655;52.182;4.474;2023-04-27T04:05:17;102042.72;;;3.95;82.62
72612;BME280;60655;52.182;4.474;2023-04-27T04:07:18;102045.91;;;3.89;82.78
72612;BME280;60655;52.182;4.474;2023-04-27T04:09:19;102046.91;;;3.78;81.81
72612;BME280;60655;52.182;4.474;2023-04-27T04:11:20;102054.91;;;3.86;82.05
72612;BME280;60655;52.182;4.474;2023-04-27T04:13:21;102055.31;;;3.91;81.02
72612;BME280;60655;52.182;4.474;2023-04-27T04:15:22;102064.59;;;3.76;81.22
72612;BME280;60655;52.182;4.474;2023-04-27T04:17:23;102063.94;;;3.74;81.72
72612;BME280;60655;52.182;4.474;2023-04-27T04:19:24;102058.25;;;3.79;82.84
72612;BME280;60655;52.182;4.474;2023-04-27T04:21:25;102065.16;;;3.89;83.00
72612;BME280;60655;52.182;4.474;2023-04-27T04:23:26;102057.13;;;3.91;83.33
72612;BME280;60655;52.182;4.474;2023-04-27T04:25:27;102064.59;;;3.95;82.74
72612;BME280;60655;52.182;4.474;2023-04-27T04:27:28;102068.03;;;3.96;82.62
72612;BME280;60655;52.182;4.474;2023-04-27T04:29:29;102068.31;;;3.93;82.76
72612;BME280;60655;52.182;4.474;2023-04-27T04:31:30;102062.09;;;3.94;82.17
72612;BME280;60655;52.182;4.474;2023-04-27T04:33:33;102078.97;;;4.01;82.14
72612;BME280;60655;52.182;4.474;2023-04-27T04:35:37;102068.69;;;4.07;82.27
72612;BME280;60655;52.182;4.474;2023-04-27T04:37:38;102076.47;;;3.99;81.99
72612;BME280;60655;52.182;4.474;2023-04-27T04:39:39;102068.88;;;3.96;82.33
72612;BME280;60655;52.182;4.474;2023-04-27T04:41:40;102072.88;;;4.00;82.14
72612;BME280;60655;52.182;4.474;2023-04-27T04:43:41;102075.31;;;4.12;81.93
72612;BME280;60655;52.182;4.474;2023-04-27T04:45:42;102081.13;;;4.15;81.61
72612;BME280;60655;52.182;4.474;2023-04-27T04:47:43;102080.72;;;4.10;80.98
72612;BME280;60655;52.182;4.474;2023-04-27T04:49:44;102080.34;;;3.95;81.59
72612;BME280;60655;52.182;4.474;2023-04-27T04:51:45;102088.19;;;4.15;82.41
72612;BME280;60655;52.182;4.474;2023-04-27T04:53:46;102077.38;;;4.18;81.86
72612;BME280;60655;52.182;4.474;2023-04-27T04:55:47;102076.75;;;4.33;81.57
72612;BME280;60655;52.182;4.474;2023-04-27T04:57:48;102072.50;;;4.32;81.62
72612;BME280;60655;52.182;4.474;2023-04-27T04:59:49;102062.84;;;4.23;81.55
72612;BME280;60655;52.182;4.474;2023-04-27T05:01:50;102066.47;;;4.40;81.88
72612;BME280;60655;52.182;4.474;2023-04-27T05:03:55;102068.09;;;4.51;81.68
72612;BME280;60655;52.182;4.474;2023-04-27T05:05:56;102068.94;;;4.51;81.32
72612;BME280;60655;52.182;4.474;2023-04-27T05:07:57;102074.59;;;4.56;81.31
72612;BME280;60655;52.182;4.474;2023-04-27T05:09:58;102064.75;;;4.58;81.31
72612;BME280;60655;52.182;4.474;2023-04-27T05:12:00;102068.44;;;4.65;80.74
72612;BME280;60655;52.182;4.474;2023-04-27T05:14:01;102079.31;;;4.80;80.98
72612;BME280;60655;52.182;4.474;2023-04-27T05:16:03;102077.22;;;4.84;80.87
72612;BME280;60655;52.182;4.474;2023-04-27T05:18:05;102079.56;;;4.87;79.76
72612;BME280;60655;52.182;4.474;2023-04-27T05:20:07;102072.09;;;5.00;80.79
72612;BME280;60655;52.182;4.474;2023-04-27T05:22:09;102073.63;;;5.02;78.44
72612;BME280;60655;52.182;4.474;2023-04-27T05:24:10;102068.50;;;5.01;78.53
72612;BME280;60655;52.182;4.474;2023-04-27T05:26:13;102066.69;;;5.01;78.72
72612;BME280;60655;52.182;4.474;2023-04-27T05:28:15;102075.06;;;5.15;77.03
72612;BME280;60655;52.182;4.474;2023-04-27T05:30:16;102072.28;;;5.16;77.26
72612;BME280;60655;52.182;4.474;2023-04-27T05:32:16;102069.09;;;5.30;77.07
72612;BME280;60655;52.182;4.474;2023-04-27T05:34:18;102073.09;;;5.34;76.06
72612;BME280;60655;52.182;4.474;2023-04-27T05:36:19;102073.84;;;5.45;76.21
72612;BME280;60655;52.182;4.474;2023-04-27T05:38:20;102075.34;;;5.47;76.53
72612;BME280;60655;52.182;4.474;2023-04-27T05:40:21;102072.38;;;5.50;76.21
72612;BME280;60655;52.182;4.474;2023-04-27T05:42:22;102078.25;;;5.62;75.52
72612;BME280;60655;52.182;4.474;2023-04-27T05:44:23;102072.00;;;5.63;74.62
72612;BME280;60655;52.182;4.474;2023-04-27T05:46:27;102073.97;;;5.61;75.21
72612;BME280;60655;52.182;4.474;2023-04-27T05:48:29;102078.03;;;5.73;75.12
72612;BME280;60655;52.182;4.474;2023-04-27T05:50:29;102077.59;;;5.86;75.54
72612;BME280;60655;52.182;4.474;2023-04-27T05:52:31;102073.41;;;5.93;75.35
72612;BME280;60655;52.182;4.474;2023-04-27T05:54:32;102080.25;;;6.03;75.09
72612;BME280;60655;52.182;4.474;2023-04-27T05:56:33;102081.56;;;6.07;74.28
72612;BME280;60655;52.182;4.474;2023-04-27T05:58:33;102083.88;;;6.10;73.68
72612;BME280;60655;52.182;4.474;2023-04-27T06:00:34;102083.03;;;6.36;73.31
72612;BME280;60655;52.182;4.474;2023-04-27T06:02:36;102096.59;;;6.41;73.08
72612;BME280;60655;52.182;4.474;2023-04-27T06:04:37;102088.34;;;6.44;72.82
72612;BME280;60655;52.182;4.474;2023-04-27T06:06:38;102088.88;;;6.48;73.53
72612;BME280;60655;52.182;4.474;2023-04-27T06:08:39;102094.47;;;6.44;72.19
72612;BME280;60655;52.182;4.474;2023-04-27T06:10:39;102090.88;;;6.54;72.50
72612;BME280;60655;52.182;4.474;2023-04-27T06:12:40;102090.94;;;6.70;71.12
72612;BME280;60655;52.182;4.474;2023-04-27T06:14:42;102083.22;;;6.85;71.11
72612;BME280;60655;52.182;4.474;2023-04-27T06:16:43;102088.50;;;6.85;71.51
72612;BME280;60655;52.182;4.474;2023-04-27T06:18:43;102083.91;;;6.95;71.38
72612;BME280;60655;52.182;4.474;2023-04-27T06:23:04;102086.25;;;7.06;70.13
72612;BME280;60655;52.182;4.474;2023-04-27T06:25:06;102091.38;;;7.07;69.09
72612;BME280;60655;52.182;4.474;2023-04-27T06:27:07;102079.34;;;7.13;69.60
72612;BME280;60655;52.182;4.474;2023-04-27T06:29:10;102084.28;;;7.24;69.17
72612;BME280;60655;52.182;4.474;2023-04-27T06:31:11;102084.63;;;7.29;68.56
72612;BME280;60655;52.182;4.474;2023-04-27T06:33:11;102076.03;;;7.35;69.02
72612;BME280;60655;52.182;4.474;2023-04-27T06:35:12;102079.69;;;7.51;69.69
72612;BME280;60655;52.182;4.474;2023-04-27T06:37:13;102083.16;;;7.59;68.40
72612;BME280;60655;52.182;4.474;2023-04-27T06:39:16;102069.91;;;7.51;66.09
72612;BME280;60655;52.182;4.474;2023-04-27T06:41:17;102078.03;;;7.66;68.62
72612;BME280;60655;52.182;4.474;2023-04-27T06:43:18;102077.69;;;7.69;67.47
72612;BME280;60655;52.182;4.474;2023-04-27T06:45:19;102075.03;;;7.85;66.85
72612;BME280;60655;52.182;4.474;2023-04-27T06:47:20;102081.13;;;7.86;65.99
72612;BME280;60655;52.182;4.474;2023-04-27T06:49:21;102084.94;;;7.91;66.71
72612;BME280;60655;52.182;4.474;2023-04-27T06:51:23;102083.78;;;7.94;66.81
72612;BME280;60655;52.182;4.474;2023-04-27T06:53:24;102084.44;;;7.88;66.99
72612;BME280;60655;52.182;4.474;2023-04-27T06:55:25;102084.28;;;7.97;65.87
72612;BME280;60655;52.182;4.474;2023-04-27T06:57:25;102084.94;;;7.91;65.45
72612;BME280;60655;52.182;4.474;2023-04-27T06:59:27;102087.59;;;7.91;65.87
72612;BME280;60655;52.182;4.474;2023-04-27T07:01:28;102081.78;;;7.96;65.54
72612;BME280;60655;52.182;4.474;2023-04-27T07:03:29;102073.81;;;8.12;66.30
72612;BME280;60655;52.182;4.474;2023-04-27T07:05:32;102078.44;;;8.18;64.62
72612;BME280;60655;52.182;4.474;2023-04-27T07:07:33;102084.88;;;8.16;63.85
72612;BME280;60655;52.182;4.474;2023-04-27T07:09:34;102086.38;;;8.18;64.38
72612;BME280;60655;52.182;4.474;2023-04-27T07:11:35;102072.97;;;8.11;64.39
72612;BME280;60655;52.182;4.474;2023-04-27T07:13:36;102075.44;;;8.29;65.25
72612;BME280;60655;52.182;4.474;2023-04-27T07:15:37;102079.25;;;8.27;63.60
72612;BME280;60655;52.182;4.474;2023-04-27T07:17:38;102086.19;;;8.36;64.25
72612;BME280;60655;52.182;4.474;2023-04-27T07:19:38;102082.69;;;8.43;64.10
72612;BME280;60655;52.182;4.474;2023-04-27T07:21:39;102075.63;;;8.36;64.50
72612;BME280;60655;52.182;4.474;2023-04-27T07:23:40;102073.25;;;8.41;63.58
72612;BME280;60655;52.182;4.474;2023-04-27T07:25:42;102067.63;;;8.44;64.39
72612;BME280;60655;52.182;4.474;2023-04-27T07:27:45;102075.88;;;8.49;65.15
72612;BME280;60655;52.182;4.474;2023-04-27T07:29:46;102078.47;;;8.65;64.06
72612;BME280;60655;52.182;4.474;2023-04-27T07:31:47;102073.78;;;8.67;63.15
72612;BME280;60655;52.182;4.474;2023-04-27T07:33:48;102076.94;;;8.71;64.13
72612;BME280;60655;52.182;4.474;2023-04-27T07:35:49;102083.03;;;8.79;63.25
72612;BME280;60655;52.182;4.474;2023-04-27T07:37:51;102089.66;;;8.75;61.22
72612;BME280;60655;52.182;4.474;2023-04-27T07:39:52;102081.38;;;8.78;61.53
72612;BME280;60655;52.182;4.474;2023-04-27T07:41:52;102078.34;;;8.90;61.67
72612;BME280;60655;52.182;4.474;2023-04-27T07:43:54;102076.38;;;8.84;61.66
72612;BME280;60655;52.182;4.474;2023-04-27T07:45:55;102071.56;;;9.10;60.54
72612;BME280;60655;52.182;4.474;2023-04-27T07:47:58;102068.31;;;9.00;59.45
72612;BME280;60655;52.182;4.474;2023-04-27T07:49:59;102071.63;;;9.02;58.97
72612;BME280;60655;52.182;4.474;2023-04-27T07:52:00;102073.53;;;9.16;58.75
72612;BME280;60655;52.182;4.474;2023-04-27T07:54:01;102067.63;;;9.06;59.42
72612;BME280;60655;52.182;4.474;2023-04-27T07:56:04;102074.84;;;9.20;60.17
72612;BME280;60655;52.182;4.474;2023-04-27T07:58:05;102080.41;;;9.25;58.92
72612;BME280;60655;52.182;4.474;2023-04-27T08:00:06;102068.97;;;9.25;59.79
72612;BME280;60655;52.182;4.474;2023-04-27T08:02:09;102074.81;;;9.43;59.17
72612;BME280;60655;52.182;4.474;2023-04-27T08:04:11;102068.06;;;9.55;59.40
72612;BME280;60655;52.182;4.474;2023-04-27T08:06:12;102072.13;;;9.66;58.98
72612;BME280;60655;52.182;4.474;2023-04-27T08:08:13;102065.94;;;9.73;58.80
72612;BME280;60655;52.182;4.474;2023-04-27T08:10:14;102065.75;;;9.75;58.23
72612;BME280;60655;52.182;4.474;2023-04-27T08:12:15;102061.56;;;9.80;59.18
72612;BME280;60655;52.182;4.474;2023-04-27T08:14:16;102058.91;;;9.95;57.65
72612;BME280;60655;52.182;4.474;2023-04-27T08:16:17;102052.66;;;9.88;57.79
72612;BME280;60655;52.182;4.474;2023-04-27T08:18:18;102065.88;;;9.81;57.42
72612;BME280;60655;52.182;4.474;2023-04-27T08:20:19;102059.91;;;9.79;57.32
72612;BME280;60655;52.182;4.474;2023-04-27T08:22:20;102060.72;;;9.80;58.29
72612;BME280;60655;52.182;4.474;2023-04-27T08:24:21;102060.34;;;9.83;57.94
72612;BME280;60655;52.182;4.474;2023-04-27T08:26:22;102066.59;;;9.75;57.61
72612;BME280;60655;52.182;4.474;2023-04-27T08:28:23;102058.97;;;9.72;57.27
72612;BME280;60655;52.182;4.474;2023-04-27T08:30:24;102054.13;;;9.76;57.50
72612;BME280;60655;52.182;4.474;2023-04-27T08:32:25;102063.94;;;9.90;58.02
72612;BME280;60655;52.182;4.474;2023-04-27T08:34:27;102069.16;;;10.13;58.19
72612;BME280;60655;52.182;4.474;2023-04-27T08:36:28;102063.53;;;10.31;57.25
72612;BME280;60655;52.182;4.474;2023-04-27T08:38:28;102058.38;;;10.44;55.02
72612;BME280;60655;52.182;4.474;2023-04-27T08:40:29;102059.97;;;10.38;54.67
72612;BME280;60655;52.182;4.474;2023-04-27T08:42:30;102061.22;;;10.42;53.58
72612;BME280;60655;52.182;4.474;2023-04-27T08:44:31;102060.19;;;10.58;55.06
72612;BME280;60655;52.182;4.474;2023-04-27T08:46:32;102060.72;;;10.68;54.89
72612;BME280;60655;52.182;4.474;2023-04-27T08:48:33;102059.78;;;10.76;54.30
72612;BME280;60655;52.182;4.474;2023-04-27T08:50:37;102051.69;;;10.63;55.12
72612;BME280;60655;52.182;4.474;2023-04-27T08:52:43;102052.56;;;10.70;55.61
72612;BME280;60655;52.182;4.474;2023-04-27T08:54:44;102053.28;;;10.78;55.49
72612;BME280;60655;52.182;4.474;2023-04-27T08:56:45;102059.00;;;10.61;54.02
72612;BME280;60655;52.182;4.474;2023-04-27T08:58:46;102048.47;;;10.67;54.66
72612;BME280;60655;52.182;4.474;2023-04-27T09:00:47;102056.69;;;10.72;54.51
72612;BME280;60655;52.182;4.474;2023-04-27T09:02:49;102047.31;;;10.76;54.15
72612;BME280;60655;52.182;4.474;2023-04-27T09:04:49;102055.09;;;10.78;54.42
72612;BME280;60655;52.182;4.474;2023-04-27T09:06:51;102054.00;;;11.08;54.19
72612;BME280;60655;52.182;4.474;2023-04-27T09:08:52;102048.13;;;11.13;51.82
72612;BME280;60655;52.182;4.474;2023-04-27T09:10:53;102041.22;;;11.19;52.66
72612;BME280;60655;52.182;4.474;2023-04-27T09:12:58;102043.19;;;11.10;52.47
72612;BME280;60655;52.182;4.474;2023-04-27T09:15:01;102045.47;;;11.13;51.85
72612;BME280;60655;52.182;4.474;2023-04-27T09:17:03;102039.69;;;11.31;53.58
72612;BME280;60655;52.182;4.474;2023-04-27T09:19:04;102036.56;;;11.48;51.14
72612;BME280;60655;52.182;4.474;2023-04-27T09:21:05;102037.88;;;11.59;50.70
72612;BME280;60655;52.182;4.474;2023-04-27T09:23:06;102044.59;;;11.76;51.10
72612;BME280;60655;52.182;4.474;2023-04-27T09:25:07;102039.25;;;11.55;49.52
72612;BME280;60655;52.182;4.474;2023-04-27T09:27:18;102042.97;;;11.54;50.62
72612;BME280;60655;52.182;4.474;2023-04-27T09:29:19;102041.75;;;11.78;49.57
72612;BME280;60655;52.182;4.474;2023-04-27T09:31:21;102046.06;;;11.86;49.69
72612;BME280;60655;52.182;4.474;2023-04-27T09:33:27;102049.69;;;12.06;48.32
72612;BME280;60655;52.182;4.474;2023-04-27T09:35:30;102050.81;;;11.90;47.27
72612;BME280;60655;52.182;4.474;2023-04-27T09:37:31;102053.72;;;11.95;48.07
72612;BME280;60655;52.182;4.474;2023-04-27T09:39:34;102049.69;;;12.06;47.80
72612;BME280;60655;52.182;4.474;2023-04-27T09:41:36;102056.19;;;11.97;46.46
72612;BME280;60655;52.182;4.474;2023-04-27T09:43:37;102048.44;;;12.02;47.85
72612;BME280;60655;52.182;4.474;2023-04-27T09:45:38;102046.13;;;11.92;49.33
72612;BME280;60655;52.182;4.474;2023-04-27T09:47:39;102048.16;;;12.25;49.12
72612;BME280;60655;52.182;4.474;2023-04-27T09:49:40;102046.16;;;12.33;48.68
72612;BME280;60655;52.182;4.474;2023-04-27T09:51:41;102044.88;;;12.23;47.79
72612;BME280;60655;52.182;4.474;2023-04-27T09:53:49;102044.50;;;12.32;47.54
72612;BME280;60655;52.182;4.474;2023-04-27T09:58:23;102037.91;;;12.69;47.65
72612;BME280;60655;52.182;4.474;2023-04-27T10:03:03;102029.44;;;12.59;44.92
72612;BME280;60655;52.182;4.474;2023-04-27T10:05:37;102036.88;;;12.77;46.46
72612;BME280;60655;52.182;4.474;2023-04-27T10:07:44;102038.31;;;12.79;45.46
72612;BME280;60655;52.182;4.474;2023-04-27T10:09:47;102036.72;;;13.05;45.71
72612;BME280;60655;52.182;4.474;2023-04-27T10:11:49;102046.78;;;13.03;45.08
72612;BME280;60655;52.182;4.474;2023-04-27T10:13:52;102041.66;;;12.95;46.60
72612;BME280;60655;52.182;4.474;2023-04-27T10:15:53;102038.59;;;12.98;44.64
72612;BME280;60655;52.182;4.474;2023-04-27T10:17:54;102036.28;;;12.88;42.75
72612;BME280;60655;52.182;4.474;2023-04-27T10:20:00;102032.78;;;12.81;46.10
72612;BME280;60655;52.182;4.474;2023-04-27T10:22:02;102034.41;;;12.69;45.59
72612;BME280;60655;52.182;4.474;2023-04-27T10:24:07;102034.91;;;12.99;45.42
72612;BME280;60655;52.182;4.474;2023-04-27T10:26:08;102033.63;;;13.01;45.55
72612;BME280;60655;52.182;4.474;2023-04-27T10:28:15;102036.19;;;13.23;44.46
72612;BME280;60655;52.182;4.474;2023-04-27T10:30:17;102030.22;;;13.47;43.38
72612;BME280;60655;52.182;4.474;2023-04-27T10:32:24;102025.09;;;13.45;42.72
72612;BME280;60655;52.182;4.474;2023-04-27T10:34:26;102021.81;;;13.37;43.04
72612;BME280;60655;52.182;4.474;2023-04-27T10:36:36;102027.09;;;13.04;43.43
72612;BME280;60655;52.182;4.474;2023-04-27T10:38:39;102027.34;;;13.42;43.17
72612;BME280;60655;52.182;4.474;2023-04-27T10:40:40;102024.91;;;13.47;42.15
72612;BME280;60655;52.182;4.474;2023-04-27T10:42:41;102027.13;;;13.76;42.21
72612;BME280;60655;52.182;4.474;2023-04-27T10:44:53;102024.81;;;13.86;42.93
72612;BME280;60655;52.182;4.474;2023-04-27T10:46:57;102023.78;;;13.88;43.97
72612;BME280;60655;52.182;4.474;2023-04-27T10:48:59;102012.25;;;14.07;43.73